createdAt,value
2019-05-21T00:01:08.245Z,100012.77
2019-05-21T00:03:39.328Z,100005.66
2019-05-21T00:06:10.093Z,100000.05
2019-05-21T00:08:40.961Z,99993.57
2019-05-21T00:11:12.858Z,99983.73
2019-05-21T00:13:43.685Z,99983.58
2019-05-21T00:16:14.218Z,99981.26
2019-05-21T00:18:44.987Z,99978.45
2019-05-21T00:21:15.812Z,99986.48
2019-05-21T00:23:49.029Z,99989.65
2019-05-21T00:26:20.905Z,99984.69
2019-05-21T00:29:26.971Z,99985.33
2019-05-21T00:32:32.516Z,99978.73
2019-05-21T00:35:50.344Z,99975.92
2019-05-21T00:38:56.006Z,99978.41
2019-05-21T00:42:04.296Z,99976.77
2019-05-21T00:44:39.449Z,99983.17
2019-05-21T00:47:12.054Z,99979.05
2019-05-21T00:49:43.015Z,99984.33
2019-05-21T00:52:13.899Z,99989.97
2019-05-21T00:54:44.491Z,99985.33
2019-05-21T00:57:15.405Z,99982.37
2019-05-21T00:59:47.268Z,99984.84
2019-05-21T01:02:18.001Z,99980.72
2019-05-21T01:05:00.205Z,99990.23
2019-05-21T01:07:22.463Z,99983.91
2019-05-21T01:09:53.433Z,99989.17
2019-05-21T01:12:24.245Z,99996.58
2019-05-21T01:14:54.906Z,99992.61
2019-05-21T01:17:25.815Z,99992.55
2019-05-21T01:19:56.746Z,100002.38
2019-05-21T01:22:27.455Z,99998.93
2019-05-21T01:24:58.284Z,100006.62
2019-05-21T01:27:28.970Z,100008.19
2019-05-21T01:29:59.873Z,100010.14
2019-05-21T01:32:30.919Z,100003.78
2019-05-21T01:35:16.087Z,100005.63
2019-05-21T01:37:34.506Z,99998.67
2019-05-21T01:40:05.439Z,100005.39
2019-05-21T01:42:37.996Z,100009.10
2019-05-21T01:45:10.442Z,100015.98
2019-05-21T01:47:41.258Z,100012.12
2019-05-21T01:50:12.112Z,100014.52
2019-05-21T01:52:43.965Z,100009.67
2019-05-21T01:55:14.779Z,100009.37
2019-05-21T01:57:45.376Z,100007.48
2019-05-21T02:00:16.424Z,99992.22
2019-05-21T02:02:47.067Z,99988.17
2019-05-21T02:05:32.143Z,99994.52
2019-05-21T02:07:51.873Z,100002.83
2019-05-21T02:10:22.562Z,99999.03
2019-05-21T02:12:53.930Z,100004.28
2019-05-21T02:15:25.084Z,100007.88
2019-05-21T02:17:55.887Z,100010.36
2019-05-21T02:20:26.472Z,100004.39
2019-05-21T02:22:57.395Z,99994.70
2019-05-21T02:25:28.241Z,99995.77
2019-05-21T02:28:00.970Z,100004.31
2019-05-21T02:30:31.761Z,100007.13
2019-05-21T02:33:03.545Z,100019.73
2019-05-21T02:35:52.379Z,100027.36
2019-05-21T02:38:06.631Z,100025.46
2019-05-21T02:40:37.564Z,100027.47
2019-05-21T02:43:08.475Z,100025.64
2019-05-21T02:45:39.264Z,100015.55
2019-05-21T02:48:10.183Z,100016.81
2019-05-21T02:50:40.886Z,100023.02
2019-05-21T02:53:11.705Z,100026.88
2019-05-21T02:55:42.603Z,100031.83
2019-05-21T02:58:13.359Z,100031.37
2019-05-21T03:00:57.194Z,100023.41
2019-05-21T03:03:30.145Z,100019.52
2019-05-21T03:06:13.280Z,100021.95
2019-05-21T03:08:33.745Z,100016.95
2019-05-21T03:11:04.473Z,100018.38
2019-05-21T03:13:35.263Z,100026.17
2019-05-21T03:16:08.092Z,100034.32
2019-05-21T03:18:38.891Z,100045.66
2019-05-21T03:21:09.925Z,100053.18
2019-05-21T03:23:40.789Z,100053.98
2019-05-21T03:26:13.236Z,100039.79
2019-05-21T03:28:45.081Z,100044.47
2019-05-21T03:31:15.953Z,100024.53
2019-05-21T03:33:46.895Z,100015.01
2019-05-21T03:36:32.745Z,100021.48
2019-05-21T03:38:51.367Z,100012.70
2019-05-21T03:41:22.272Z,100015.11
2019-05-21T03:43:53.110Z,100020.89
2019-05-21T03:46:24.277Z,100028.67
2019-05-21T03:48:54.989Z,100029.20
2019-05-21T03:51:25.785Z,100024.13
2019-05-21T03:53:56.536Z,100022.69
2019-05-21T03:56:27.490Z,100019.66
2019-05-21T03:58:58.713Z,100026.55
2019-05-21T04:01:29.115Z,100030.40
2019-05-21T04:03:59.899Z,100030.17
2019-05-21T04:06:30.366Z,100032.41
2019-05-21T04:09:00.755Z,100038.33
2019-05-21T04:11:31.236Z,100038.06
2019-05-21T04:14:02.345Z,100039.87
2019-05-21T04:16:50.017Z,100044.64
2019-05-21T04:19:27.210Z,100053.52
2019-05-21T04:21:57.955Z,100061.02
2019-05-21T04:24:28.864Z,100057.65
2019-05-21T04:26:59.743Z,100062.42
2019-05-21T04:29:31.304Z,100069.16
2019-05-21T04:32:01.922Z,100071.64
2019-05-21T04:34:33.699Z,100065.68
2019-05-21T04:37:10.590Z,100072.58
2019-05-21T04:39:36.781Z,100077.37
2019-05-21T04:42:07.538Z,100077.37
2019-05-21T04:44:40.049Z,100071.22
2019-05-21T04:47:10.711Z,100065.84
2019-05-21T04:49:42.911Z,100066.65
2019-05-21T04:52:13.736Z,100064.16
2019-05-21T04:54:44.313Z,100071.72
2019-05-21T04:57:14.873Z,100070.03
2019-05-21T04:59:45.558Z,100067.70
2019-05-21T05:02:16.859Z,100071.28
2019-05-21T05:04:49.503Z,100065.39
2019-05-21T05:07:28.199Z,100064.70
2019-05-21T05:09:53.148Z,100062.95
2019-05-21T05:12:24.208Z,100065.58
2019-05-21T05:14:54.969Z,100066.80
2019-05-21T05:17:26.807Z,100076.05
2019-05-21T05:19:57.766Z,100067.20
2019-05-21T05:22:28.544Z,100075.56
2019-05-21T05:24:59.309Z,100066.66
2019-05-21T05:27:30.160Z,100075.14
2019-05-21T05:30:02.886Z,100078.06
2019-05-21T05:32:33.630Z,100077.52
2019-05-21T05:35:05.444Z,100074.83
2019-05-21T05:37:44.267Z,100075.56
2019-05-21T05:40:09.075Z,100081.84
2019-05-21T05:42:39.471Z,100084.16
2019-05-21T05:45:11.023Z,100082.52
2019-05-21T05:47:41.940Z,100086.96
2019-05-21T05:50:17.017Z,100074.60
2019-05-21T05:52:47.801Z,100081.44
2019-05-21T05:55:18.902Z,100082.25
2019-05-21T05:57:49.380Z,100084.03
2019-05-21T06:00:20.208Z,100073.35
2019-05-21T06:02:50.875Z,100077.73
2019-05-21T06:05:21.550Z,100082.13
2019-05-21T06:07:59.695Z,100085.47
2019-05-21T06:10:24.842Z,100082.83
2019-05-21T06:12:55.601Z,100079.46
2019-05-21T06:15:26.406Z,100087.42
2019-05-21T06:17:58.724Z,100085.34
2019-05-21T06:20:29.471Z,100091.19
2019-05-21T06:23:00.348Z,100100.97
2019-05-21T06:25:31.319Z,100099.16
2019-05-21T06:28:02.257Z,100105.56
2019-05-21T06:30:33.946Z,100110.77
2019-05-21T06:33:04.669Z,100112.88
2019-05-21T06:35:35.356Z,100108.06
2019-05-21T06:38:17.081Z,100110.14
2019-05-21T06:40:39.940Z,100109.70
2019-05-21T06:43:10.702Z,100109.32
2019-05-21T06:45:41.703Z,100119.70
2019-05-21T06:48:13.318Z,100118.52
2019-05-21T06:50:44.678Z,100115.19
2019-05-21T06:53:15.337Z,100115.94
2019-05-21T06:55:46.473Z,100113.33
2019-05-21T06:58:18.559Z,100108.66
2019-05-21T07:00:49.222Z,100101.13
2019-05-21T07:03:21.451Z,100102.13
2019-05-21T07:05:58.796Z,100095.97
2019-05-21T07:08:34.834Z,100105.46
2019-05-21T07:10:58.858Z,100104.16
2019-05-21T07:13:31.136Z,100107.28
2019-05-21T07:16:01.942Z,100118.72
2019-05-21T07:18:32.626Z,100106.17
2019-05-21T07:21:03.700Z,100098.69
2019-05-21T07:23:34.422Z,100102.00
2019-05-21T07:26:06.739Z,100102.50
2019-05-21T07:28:37.575Z,100105.00
2019-05-21T07:31:09.236Z,100105.02
2019-05-21T07:33:39.977Z,100105.64
2019-05-21T07:36:10.910Z,100107.37
2019-05-21T07:38:52.491Z,100097.61
2019-05-21T07:41:14.128Z,100101.70
2019-05-21T07:43:44.950Z,100105.69
2019-05-21T07:46:15.907Z,100099.53
2019-05-21T07:48:46.530Z,100105.66
2019-05-21T07:51:17.508Z,100108.72
2019-05-21T07:53:48.241Z,100106.22
2019-05-21T07:56:19.233Z,100099.28
2019-05-21T07:58:49.975Z,100105.02
2019-05-21T08:01:22.266Z,100113.38
2019-05-21T08:03:53.261Z,100109.75
2019-05-21T08:06:25.469Z,100115.20
2019-05-21T08:09:12.765Z,100120.80
2019-05-21T08:11:31.306Z,100113.89
2019-05-21T08:14:03.629Z,100110.59
2019-05-21T08:16:34.500Z,100112.09
2019-05-21T08:19:05.317Z,100110.99
2019-05-21T08:21:36.137Z,100108.69
2019-05-21T08:24:07.011Z,100113.38
2019-05-21T08:26:37.601Z,100114.28
2019-05-21T08:29:08.297Z,100105.53
2019-05-21T08:31:40.083Z,100105.70
2019-05-21T08:34:11.082Z,100100.39
2019-05-21T08:36:41.932Z,100097.66
2019-05-21T08:39:27.626Z,100096.79
2019-05-21T08:41:45.969Z,100097.58
2019-05-21T08:44:16.714Z,100092.91
2019-05-21T08:46:48.676Z,100094.63
2019-05-21T08:49:19.717Z,100093.49
2019-05-21T08:51:50.592Z,100088.86
2019-05-21T08:54:40.168Z,100097.84
2019-05-21T08:57:11.179Z,100105.47
2019-05-21T08:59:41.949Z,100088.86
2019-05-21T09:02:12.781Z,100093.41
2019-05-21T09:04:46.649Z,100089.20
2019-05-21T09:07:17.337Z,100088.23
2019-05-21T09:09:51.002Z,100082.38
2019-05-21T09:12:20.704Z,100081.70
2019-05-21T09:14:52.618Z,100083.20
2019-05-21T09:17:23.323Z,100081.27
2019-05-21T09:19:54.319Z,100080.34
2019-05-21T09:22:25.709Z,100085.54
2019-05-21T09:24:56.578Z,100084.17
2019-05-21T09:27:27.117Z,100083.54
2019-05-21T09:29:58.936Z,100084.70
2019-05-21T09:32:30.161Z,100085.57
2019-05-21T09:35:02.103Z,100083.08
2019-05-21T09:37:33.218Z,100080.23
2019-05-21T09:40:05.323Z,100087.00
2019-05-21T09:42:37.483Z,100076.21
2019-05-21T09:45:09.288Z,100074.78
2019-05-21T09:47:40.620Z,100073.44
2019-05-21T09:50:11.933Z,100075.55
2019-05-21T09:52:42.654Z,100071.28
2019-05-21T09:55:13.782Z,100070.67
2019-05-21T09:57:57.747Z,100068.14
2019-05-21T10:01:06.564Z,100069.50
2019-05-21T10:03:40.994Z,100067.28
2019-05-21T10:06:11.683Z,100059.72
2019-05-21T10:08:42.373Z,100058.44
2019-05-21T10:11:13.207Z,100061.54
2019-05-21T10:13:44.069Z,100059.48
2019-05-21T10:16:15.075Z,100065.31
2019-05-21T10:18:47.350Z,100064.70
2019-05-21T10:21:18.464Z,100062.09
2019-05-21T10:23:50.808Z,100057.75
2019-05-21T10:26:21.857Z,100059.12
2019-05-21T10:28:52.764Z,100060.75
2019-05-21T10:31:23.769Z,100054.23
2019-05-21T10:33:54.657Z,100055.96
2019-05-21T10:36:25.520Z,100053.27
2019-05-21T10:38:56.575Z,100048.87
2019-05-21T10:41:27.564Z,100054.27
2019-05-21T10:44:00.518Z,100058.08
2019-05-21T10:46:31.348Z,100054.30
2019-05-21T10:49:02.108Z,100055.56
2019-05-21T10:51:32.939Z,100057.36
2019-05-21T10:54:04.223Z,100055.95
2019-05-21T10:56:47.214Z,100056.22
2019-05-21T10:59:07.868Z,100064.23
2019-05-21T11:01:56.350Z,100052.17
2019-05-21T11:04:52.585Z,100048.78
2019-05-21T11:07:24.043Z,100038.41
2019-05-21T11:09:55.181Z,100034.16
2019-05-21T11:12:26.492Z,100024.30
2019-05-21T11:14:57.748Z,100012.91
2019-05-21T11:17:28.458Z,100019.38
2019-05-21T11:19:59.301Z,100020.89
2019-05-21T11:22:32.371Z,100036.84
2019-05-21T11:25:05.203Z,100027.50
2019-05-21T11:27:37.205Z,100013.85
2019-05-21T11:30:09.378Z,100004.63
2019-05-21T11:32:40.082Z,100007.05
2019-05-21T11:35:11.217Z,100009.02
2019-05-21T11:37:42.120Z,100005.72
2019-05-21T11:40:13.613Z,100011.49
2019-05-21T11:42:44.934Z,100014.55
2019-05-21T11:45:31.039Z,100014.23
2019-05-21T11:47:48.716Z,100012.22
2019-05-21T11:50:19.930Z,100023.17
2019-05-21T11:52:50.870Z,100036.30
2019-05-21T11:55:21.534Z,100035.75
2019-05-21T11:57:52.300Z,100042.47
2019-05-21T12:00:26.908Z,100041.78
2019-05-21T12:02:57.288Z,100037.50
2019-05-21T12:05:27.719Z,100028.72
2019-05-21T12:07:58.319Z,100031.00
2019-05-21T12:10:28.683Z,100044.05
2019-05-21T12:12:59.053Z,100059.77
2019-05-21T12:15:29.469Z,100053.13
2019-05-21T12:17:59.878Z,100046.67
2019-05-21T12:20:36.883Z,100042.92
2019-05-21T12:23:03.217Z,100035.75
2019-05-21T12:25:33.950Z,100028.66
2019-05-21T12:28:06.220Z,100011.95
2019-05-21T12:30:36.801Z,100015.19
2019-05-21T12:33:07.665Z,100018.34
2019-05-21T12:35:41.620Z,100008.42
2019-05-21T12:38:12.124Z,99994.47
2019-05-21T12:40:42.698Z,99987.65
2019-05-21T12:43:13.496Z,99979.13
2019-05-21T12:45:43.956Z,99965.73
2019-05-21T12:48:14.319Z,99972.98
2019-05-21T12:50:45.828Z,99989.88
2019-05-21T12:53:16.807Z,99998.77
2019-05-21T12:55:47.964Z,99986.70
2019-05-21T12:58:18.346Z,99970.08
2019-05-21T13:00:50.985Z,99969.02
2019-05-21T13:03:21.755Z,99972.55
2019-05-21T13:05:52.433Z,99977.59
2019-05-21T13:08:23.233Z,99972.49
2019-05-21T13:10:54.037Z,99974.05
2019-05-21T13:13:24.908Z,99969.97
2019-05-21T13:15:56.102Z,99967.65
2019-05-21T13:18:26.884Z,99964.42
2019-05-21T13:20:57.425Z,99955.47
2019-05-21T13:23:28.741Z,99959.66
2019-05-21T13:25:59.522Z,99952.53
2019-05-21T13:28:30.294Z,99930.20
2019-05-21T13:31:00.996Z,99922.51
2019-05-21T13:33:31.575Z,99924.42
2019-05-21T13:36:05.802Z,99929.83
2019-05-21T13:38:36.636Z,99934.63
2019-05-21T13:41:07.874Z,99932.96
2019-05-21T13:43:38.644Z,99941.02
2019-05-21T13:46:09.567Z,99939.23
2019-05-21T13:48:47.061Z,99945.72
2019-05-21T13:51:19.114Z,99961.27
2019-05-21T13:53:50.028Z,99955.89
2019-05-21T13:56:20.969Z,99985.21
2019-05-21T13:58:51.913Z,100024.38
2019-05-21T14:01:39.357Z,100018.14
2019-05-21T14:03:56.300Z,99943.81
2019-05-21T14:06:26.974Z,99931.03
2019-05-21T14:08:57.642Z,99934.56
2019-05-21T14:11:28.896Z,99924.22
2019-05-21T14:13:59.683Z,99910.79
2019-05-21T14:16:30.417Z,99920.16
2019-05-21T14:19:03.116Z,99936.73
2019-05-21T14:21:33.697Z,99946.33
2019-05-21T14:24:04.760Z,99940.05
2019-05-21T14:26:35.514Z,99935.67
2019-05-21T14:29:06.796Z,99938.68
2019-05-21T14:31:37.343Z,99940.84
2019-05-21T14:34:07.701Z,99928.14
2019-05-21T14:36:39.915Z,99923.16
2019-05-21T14:39:14.032Z,99908.16
2019-05-21T14:41:44.479Z,99896.92
2019-05-21T14:44:14.867Z,99903.85
2019-05-21T14:46:45.451Z,99901.84
2019-05-21T14:49:16.325Z,99896.05
2019-05-21T14:51:46.876Z,99890.86
2019-05-21T14:54:26.161Z,99889.14
2019-05-21T14:56:49.648Z,99890.31
2019-05-21T14:59:20.085Z,99889.31
2019-05-21T15:01:51.066Z,99881.70
2019-05-21T15:04:21.727Z,99874.09
2019-05-21T15:06:52.453Z,99867.96
2019-05-21T15:09:22.849Z,99860.03
2019-05-21T15:11:53.252Z,99866.86
2019-05-21T15:14:24.487Z,99859.19
2019-05-21T15:16:55.389Z,99858.95
2019-05-21T15:19:26.137Z,99859.00
2019-05-21T15:21:57.279Z,99850.50
2019-05-21T15:24:33.317Z,99846.59
2019-05-21T15:27:04.011Z,99857.69
2019-05-21T15:29:34.735Z,99862.10
2019-05-21T15:32:05.413Z,99857.27
2019-05-21T15:34:37.330Z,99851.15
2019-05-21T15:37:08.880Z,99852.31
2019-05-21T15:39:39.719Z,99847.78
2019-05-21T15:42:10.499Z,99847.04
2019-05-21T15:44:42.748Z,99843.92
2019-05-21T15:47:14.092Z,99834.44
2019-05-21T15:49:45.654Z,99831.28
2019-05-21T15:52:16.484Z,99835.64
2019-05-21T15:54:47.147Z,99836.97
2019-05-21T15:57:17.940Z,99839.41
2019-05-21T15:59:48.873Z,99846.73
2019-05-21T16:02:19.619Z,99853.84
2019-05-21T16:04:50.377Z,99862.73
2019-05-21T16:07:22.311Z,99869.67
2019-05-21T16:09:53.203Z,99866.05
2019-05-21T16:12:24.292Z,99866.91
2019-05-21T16:14:55.714Z,99872.75
2019-05-21T16:17:26.763Z,99881.13
2019-05-21T16:19:57.389Z,99889.15
2019-05-21T16:22:28.137Z,99883.70
2019-05-21T16:24:59.032Z,99879.78
2019-05-21T16:27:30.054Z,99859.99
2019-05-21T16:30:00.883Z,99865.16
2019-05-21T16:32:32.109Z,99870.30
2019-05-21T16:35:02.886Z,99875.66
2019-05-21T16:37:35.259Z,99859.28
2019-05-21T16:40:08.035Z,99848.23
2019-05-21T16:42:39.022Z,99851.11
2019-05-21T16:45:11.738Z,99855.27
2019-05-21T16:47:46.054Z,99835.30
2019-05-21T16:50:17.181Z,99834.44
2019-05-21T16:52:48.057Z,99793.79
2019-05-21T16:55:18.944Z,99793.80
2019-05-21T16:57:51.393Z,99799.43
2019-05-21T17:00:22.665Z,99815.94
2019-05-21T17:02:53.039Z,99862.69
2019-05-21T17:05:24.459Z,99914.53
2019-05-21T17:07:54.788Z,99938.73
2019-05-21T17:10:25.377Z,99971.74
2019-05-21T17:12:55.759Z,100022.36
2019-05-21T17:15:26.295Z,100057.69
2019-05-21T17:17:56.768Z,100077.20
2019-05-21T17:20:27.748Z,100106.08
2019-05-21T17:22:58.655Z,100121.34
2019-05-21T17:25:28.983Z,100148.92
2019-05-21T17:27:59.458Z,100156.09
2019-05-21T17:30:29.924Z,100159.19
2019-05-21T17:33:00.381Z,100127.23
2019-05-21T17:35:30.871Z,100104.20
2019-05-21T17:38:02.473Z,100092.80
2019-05-21T17:40:33.474Z,100084.31
2019-05-21T17:43:04.138Z,100101.05
2019-05-21T17:45:34.797Z,100115.26
2019-05-21T17:48:05.718Z,100076.69
2019-05-21T17:50:37.814Z,100076.03
2019-05-21T17:53:08.545Z,100110.16
2019-05-21T17:55:39.547Z,100168.32
2019-05-21T17:58:10.588Z,100194.61
2019-05-21T18:00:52.500Z,100190.48
2019-05-21T18:03:23.420Z,100195.43
2019-05-21T18:05:55.477Z,100182.14
2019-05-21T18:08:27.236Z,100160.14
2019-05-21T18:10:57.838Z,100173.44
2019-05-21T18:13:28.601Z,100176.50
2019-05-21T18:15:59.445Z,100169.64
2019-05-21T18:18:30.531Z,100161.41
2019-05-21T18:21:02.385Z,100161.84
2019-05-21T18:23:33.274Z,100195.34
2019-05-21T18:26:03.749Z,100172.92
2019-05-21T18:28:34.693Z,100189.84
2019-05-21T18:31:05.542Z,100200.31
2019-05-21T18:33:35.929Z,100180.13
2019-05-21T18:36:06.543Z,100177.91
2019-05-21T18:38:37.921Z,100151.10
2019-05-21T18:41:08.348Z,100121.91
2019-05-21T18:43:38.713Z,100076.81
2019-05-21T18:46:09.122Z,100071.33
2019-05-21T18:48:39.615Z,100075.98
2019-05-21T18:51:10.013Z,100066.58
2019-05-21T18:53:40.384Z,100061.31
2019-05-21T18:56:10.869Z,100068.95
2019-05-21T18:58:44.292Z,100070.35
2019-05-21T19:01:16.724Z,100040.53
2019-05-21T19:03:47.154Z,100036.80
2019-05-21T19:06:17.625Z,100041.00
2019-05-21T19:08:48.143Z,100025.67
2019-05-21T19:11:18.779Z,100030.13
2019-05-21T19:13:49.460Z,100013.72
2019-05-21T19:16:19.929Z,100044.75
2019-05-21T19:18:50.783Z,100058.66
2019-05-21T19:21:21.302Z,100064.05
2019-05-21T19:23:53.246Z,100076.05
2019-05-21T19:26:24.279Z,100075.41
2019-05-21T19:28:54.747Z,100083.38
2019-05-21T19:31:25.679Z,100087.43
2019-05-21T19:33:56.212Z,100091.95
2019-05-21T19:36:31.281Z,100098.16
2019-05-21T19:39:02.821Z,100099.42
2019-05-21T19:41:33.448Z,100099.30
2019-05-21T19:44:03.869Z,100108.52
2019-05-21T19:46:34.396Z,100104.17
2019-05-21T19:49:04.795Z,100110.08
2019-05-21T19:51:35.276Z,100113.97
2019-05-21T19:54:05.788Z,100109.50
2019-05-21T19:56:36.717Z,100108.13
2019-05-21T19:59:07.389Z,100114.61
2019-05-21T20:01:38.022Z,100124.44
2019-05-21T20:04:10.120Z,100135.55
2019-05-21T20:06:40.614Z,100147.00
2019-05-21T20:09:15.286Z,100166.91
2019-05-21T20:11:46.637Z,100170.97
2019-05-21T20:14:16.999Z,100181.00
2019-05-21T20:16:48.127Z,100187.20
2019-05-21T20:19:21.534Z,100182.84
2019-05-21T20:21:51.944Z,100176.95
2019-05-21T20:24:23.128Z,100170.98
2019-05-21T20:26:53.501Z,100161.61
2019-05-21T20:29:24.111Z,100158.23
2019-05-21T20:31:54.595Z,100161.62
2019-05-21T20:34:25.485Z,100165.05
2019-05-21T20:37:00.274Z,100165.73
2019-05-21T20:39:41.603Z,100166.77
2019-05-21T20:42:13.902Z,100173.30
2019-05-21T20:44:46.811Z,100175.02
2019-05-21T20:47:18.522Z,100176.11
2019-05-21T20:49:50.997Z,100180.84
2019-05-21T20:52:21.869Z,100175.78
2019-05-21T20:54:54.643Z,100182.50
2019-05-21T20:57:25.549Z,100185.92
2019-05-21T20:59:56.252Z,100189.52
2019-05-21T21:02:28.595Z,100190.87
2019-05-21T21:04:59.075Z,100189.42
2019-05-21T21:07:31.067Z,100196.47
2019-05-21T21:10:02.516Z,100189.84
2019-05-21T21:12:33.517Z,100189.89
2019-05-21T21:15:04.131Z,100192.88
2019-05-21T21:17:35.283Z,100197.31
2019-05-21T21:20:08.029Z,100197.59
2019-05-21T21:22:38.371Z,100194.34
2019-05-21T21:25:10.624Z,100192.88
2019-05-21T21:27:42.880Z,100188.80
2019-05-21T21:30:13.782Z,100193.03
2019-05-21T21:32:44.595Z,100197.59
2019-05-21T21:35:16.037Z,100190.88
2019-05-21T21:37:52.768Z,100184.62
2019-05-21T21:40:25.084Z,100182.75
2019-05-21T21:42:57.981Z,100175.08
2019-05-21T21:45:29.046Z,100180.53
2019-05-21T21:47:59.855Z,100181.48
2019-05-21T21:50:32.096Z,100179.41
2019-05-21T21:53:03.530Z,100180.02
2019-05-21T21:55:35.330Z,100176.15
2019-05-21T21:58:09.658Z,100176.53
2019-05-21T22:01:20.824Z,100176.06
2019-05-21T22:03:53.404Z,100171.48
2019-05-21T22:06:27.101Z,100166.50
2019-05-21T22:08:58.537Z,100157.48
2019-05-21T22:11:30.156Z,100155.34
2019-05-21T22:14:01.394Z,100153.63
2019-05-21T22:16:33.027Z,100151.09
2019-05-21T22:19:03.642Z,100151.33
2019-05-21T22:21:34.393Z,100149.86
2019-05-21T22:24:05.514Z,100149.02
2019-05-21T22:26:37.452Z,100155.31
2019-05-21T22:29:08.447Z,100162.63
2019-05-21T22:31:39.608Z,100162.91
2019-05-21T22:34:10.967Z,100163.31
2019-05-21T22:36:42.660Z,100158.30
2019-05-21T22:39:20.439Z,100150.03
2019-05-21T22:41:51.216Z,100152.64
2019-05-21T22:44:22.732Z,100152.22
2019-05-21T22:46:54.110Z,100148.00
2019-05-21T22:49:33.081Z,100146.56
2019-05-21T22:51:59.176Z,100153.09
2019-05-21T22:54:30.118Z,100149.48
2019-05-21T22:57:00.864Z,100140.22
2019-05-21T22:59:31.680Z,100139.95
2019-05-21T23:02:04.115Z,100137.12
2019-05-21T23:04:34.839Z,100126.94
2019-05-21T23:07:06.053Z,100125.83
2019-05-21T23:09:36.910Z,100130.05
2019-05-21T23:12:08.675Z,100131.22
2019-05-21T23:14:39.668Z,100126.91
2019-05-21T23:17:12.448Z,100122.80
2019-05-21T23:19:45.311Z,100121.74
2019-05-21T23:22:18.767Z,100118.78
2019-05-21T23:24:50.156Z,100127.52
2019-05-21T23:27:23.147Z,100135.09
2019-05-21T23:29:54.591Z,100129.39
2019-05-21T23:32:25.453Z,100125.34
2019-05-21T23:34:56.228Z,100123.76
2019-05-21T23:37:28.876Z,100125.33
2019-05-21T23:40:02.456Z,100132.32
2019-05-21T23:42:34.634Z,100134.70
2019-05-21T23:45:06.121Z,100133.02
2019-05-21T23:47:38.707Z,100128.37
2019-05-21T23:50:11.059Z,100130.05
2019-05-21T23:52:42.136Z,100135.36
2019-05-21T23:55:13.404Z,100128.23
2019-05-21T23:57:45.067Z,100131.84
